createdAt,value
2023-03-15T00:00:17.512Z,96.92
2023-03-15T00:02:47.697Z,96.56
2023-03-15T00:05:16.209Z,96.50
2023-03-15T00:07:44.608Z,96.67
2023-03-15T00:10:13.313Z,96.46
2023-03-15T00:12:42.661Z,96.62
2023-03-15T00:15:14.327Z,95.78
2023-03-15T00:17:44.879Z,96.06
2023-03-15T00:20:15.912Z,96.61
2023-03-15T00:22:44.282Z,96.40
2023-03-15T00:25:12.883Z,96.50
2023-03-15T00:27:41.286Z,96.21
2023-03-15T00:30:11.103Z,95.86
2023-03-15T00:32:39.627Z,95.61
2023-03-15T00:35:08.692Z,95.38
2023-03-15T00:37:38.482Z,95.98
2023-03-15T00:40:08.748Z,95.84
2023-03-15T00:42:37.155Z,95.64
2023-03-15T00:45:06.552Z,94.77
2023-03-15T00:47:34.949Z,94.87
2023-03-15T00:50:03.359Z,94.79
2023-03-15T00:52:36.916Z,95.45
2023-03-15T00:55:07.254Z,95.28
2023-03-15T00:57:35.976Z,95.72
2023-03-15T01:00:08.758Z,96.49
2023-03-15T01:02:38.443Z,96.01
2023-03-15T01:05:07.749Z,96.22
2023-03-15T01:07:36.492Z,95.32
2023-03-15T01:10:08.301Z,96.17
2023-03-15T01:12:36.798Z,95.47
2023-03-15T01:15:09.123Z,96.45
2023-03-15T01:17:37.519Z,96.54
2023-03-15T01:20:07.719Z,97.26
2023-03-15T01:22:36.111Z,96.68
2023-03-15T01:25:06.622Z,97.00
2023-03-15T01:27:35.044Z,97.13
2023-03-15T01:30:03.528Z,96.85
2023-03-15T01:32:31.986Z,97.29
2023-03-15T01:35:00.406Z,96.86
2023-03-15T01:37:28.875Z,97.03
2023-03-15T01:39:57.266Z,96.52
2023-03-15T01:42:27.004Z,97.37
2023-03-15T01:44:59.895Z,98.01
2023-03-15T01:47:29.159Z,97.23
2023-03-15T01:50:04.100Z,97.15
2023-03-15T01:52:36.914Z,97.66
2023-03-15T01:55:11.239Z,98.08
2023-03-15T01:57:42.820Z,97.67
2023-03-15T02:00:13.565Z,98.13
2023-03-15T02:02:48.128Z,97.49
2023-03-15T02:05:21.629Z,98.05
2023-03-15T02:07:50.955Z,98.14
2023-03-15T02:10:24.577Z,98.07
2023-03-15T02:12:57.204Z,98.83
2023-03-15T02:15:25.622Z,99.06
2023-03-15T02:17:54.025Z,99.33
2023-03-15T02:20:32.175Z,99.38
2023-03-15T02:23:03.303Z,99.42
2023-03-15T02:25:40.688Z,99.85
2023-03-15T02:28:12.979Z,99.62
2023-03-15T02:30:42.056Z,100.00
2023-03-15T02:33:16.452Z,100.00
2023-03-15T02:35:44.701Z,100.00
2023-03-15T02:38:13.044Z,100.00
2023-03-15T02:40:41.821Z,100.00
2023-03-15T02:43:15.561Z,100.00
2023-03-15T02:45:44.244Z,100.00
2023-03-15T02:48:13.314Z,100.00
2023-03-15T02:50:41.729Z,100.00
2023-03-15T02:53:12.290Z,100.00
2023-03-15T02:55:40.850Z,100.00
2023-03-15T02:58:09.235Z,100.00
2023-03-15T03:00:39.461Z,100.00
2023-03-15T03:03:08.958Z,100.00
2023-03-15T03:05:37.361Z,100.00
2023-03-15T03:08:06.311Z,100.00
2023-03-15T03:10:34.681Z,100.00
2023-03-15T03:13:03.089Z,100.00
2023-03-15T03:15:31.526Z,100.00
2023-03-15T03:18:01.274Z,100.00
2023-03-15T03:20:30.002Z,100.00
2023-03-15T03:22:58.455Z,100.00
2023-03-15T03:25:27.385Z,100.00
2023-03-15T03:27:57.255Z,100.00
2023-03-15T03:30:26.131Z,100.00
2023-03-15T03:32:54.631Z,100.00
2023-03-15T03:35:24.464Z,100.00
2023-03-15T03:37:54.181Z,100.00
2023-03-15T03:40:22.578Z,100.00
2023-03-15T03:42:50.950Z,100.00
2023-03-15T03:45:19.408Z,100.00
2023-03-15T03:47:48.024Z,100.00
2023-03-15T03:50:16.661Z,100.00
2023-03-15T03:52:46.442Z,100.00
2023-03-15T03:55:15.078Z,100.00
2023-03-15T03:57:43.895Z,100.00
2023-03-15T04:00:15.343Z,100.00
2023-03-15T04:02:44.240Z,100.00
2023-03-15T04:05:13.317Z,100.00
2023-03-15T04:07:42.481Z,100.00
2023-03-15T04:10:14.694Z,100.00
2023-03-15T04:12:44.227Z,100.00
2023-03-15T04:15:13.611Z,100.00
2023-03-15T04:17:42.023Z,100.00
2023-03-15T04:20:13.005Z,100.00
2023-03-15T04:22:41.424Z,100.00
2023-03-15T04:25:10.166Z,100.00
2023-03-15T04:27:39.956Z,100.00
2023-03-15T04:30:09.466Z,100.00
2023-03-15T04:32:37.872Z,100.00
2023-03-15T04:35:06.971Z,100.00
2023-03-15T04:37:35.366Z,100.00
2023-03-15T04:40:07.092Z,100.00
2023-03-15T04:42:35.498Z,100.00
2023-03-15T04:45:06.174Z,100.00
2023-03-15T04:47:34.553Z,100.00
2023-03-15T04:50:02.981Z,100.00
2023-03-15T04:52:31.359Z,100.00
2023-03-15T04:54:59.783Z,100.00
2023-03-15T04:57:28.191Z,100.00
2023-03-15T04:59:57.096Z,100.00
2023-03-15T05:02:26.866Z,100.00
2023-03-15T05:04:55.289Z,100.00
2023-03-15T05:07:23.726Z,100.00
2023-03-15T05:09:52.219Z,100.00
2023-03-15T05:12:20.698Z,100.00
2023-03-15T05:14:49.109Z,100.00
2023-03-15T05:17:17.725Z,100.00
2023-03-15T05:19:47.507Z,100.00
2023-03-15T05:22:15.894Z,100.00
2023-03-15T05:24:44.584Z,100.00
2023-03-15T05:27:13.711Z,100.00
2023-03-15T05:29:42.120Z,100.00
2023-03-15T05:32:10.899Z,100.00
2023-03-15T05:34:39.313Z,100.00
2023-03-15T05:37:09.433Z,100.00
2023-03-15T05:39:37.820Z,100.00
2023-03-15T05:42:07.167Z,100.00
2023-03-15T05:44:35.581Z,100.00
2023-03-15T05:47:04.094Z,100.00
2023-03-15T05:49:32.512Z,100.00
2023-03-15T05:52:01.035Z,100.00
2023-03-15T05:54:30.824Z,100.00
2023-03-15T05:56:59.210Z,100.00
2023-03-15T05:59:27.634Z,100.00
2023-03-15T06:01:56.050Z,100.00
2023-03-15T06:04:24.893Z,100.00
2023-03-15T06:06:53.986Z,100.00
2023-03-15T06:09:22.415Z,100.00
2023-03-15T06:11:52.341Z,100.00
2023-03-15T06:14:20.755Z,100.00
2023-03-15T06:16:49.229Z,100.00
2023-03-15T06:19:17.725Z,100.00
2023-03-15T06:21:46.132Z,100.00
2023-03-15T06:24:14.831Z,100.00
2023-03-15T06:26:43.264Z,100.00
2023-03-15T06:29:13.054Z,100.00
2023-03-15T06:31:41.465Z,100.00
2023-03-15T06:34:09.875Z,100.00
2023-03-15T06:36:38.806Z,100.00
2023-03-15T06:39:07.224Z,100.00
2023-03-15T06:41:35.649Z,100.00
2023-03-15T06:44:04.154Z,100.00
2023-03-15T06:46:34.451Z,100.00
2023-03-15T06:49:03.377Z,100.00
2023-03-15T06:51:31.903Z,100.00
2023-03-15T06:54:00.348Z,100.00
2023-03-15T06:56:28.987Z,100.00
2023-03-15T06:58:57.360Z,100.00
2023-03-15T07:01:25.813Z,100.00
2023-03-15T07:03:55.836Z,100.00
2023-03-15T07:06:24.251Z,100.00
2023-03-15T07:08:52.668Z,100.00
2023-03-15T07:11:22.272Z,100.00
2023-03-15T07:13:50.684Z,100.00
2023-03-15T07:16:19.206Z,100.00
2023-03-15T07:18:47.790Z,100.00
2023-03-15T07:21:17.947Z,100.00
2023-03-15T07:23:46.356Z,100.00
2023-03-15T07:26:14.802Z,100.00
2023-03-15T07:28:44.721Z,100.00
2023-03-15T07:31:13.647Z,100.00
2023-03-15T07:33:42.350Z,100.00
2023-03-15T07:36:10.858Z,100.00
2023-03-15T07:38:43.204Z,100.00
2023-03-15T07:41:11.905Z,100.00
2023-03-15T07:43:40.420Z,100.00
2023-03-15T07:46:08.951Z,100.00
2023-03-15T07:48:37.557Z,100.00
2023-03-15T07:51:06.857Z,100.00
2023-03-15T07:53:35.320Z,100.00
2023-03-15T07:56:05.596Z,100.00
2023-03-15T07:58:34.059Z,100.00
2023-03-15T08:01:02.492Z,100.00
2023-03-15T08:03:31.561Z,100.00
2023-03-15T08:06:00.012Z,99.32
2023-03-15T08:08:28.844Z,99.19
2023-03-15T08:10:57.318Z,98.96
2023-03-15T08:13:27.137Z,97.96
2023-03-15T08:15:55.637Z,98.57
2023-03-15T08:18:24.164Z,97.45
2023-03-15T08:20:52.659Z,96.86
2023-03-15T08:23:21.893Z,96.77
2023-03-15T08:25:50.788Z,97.31
2023-03-15T08:28:19.299Z,99.00
2023-03-15T08:30:49.059Z,98.43
2023-03-15T08:33:17.631Z,98.39
2023-03-15T08:35:46.085Z,99.20
2023-03-15T08:38:14.522Z,99.50
2023-03-15T08:40:43.093Z,99.10
2023-03-15T08:43:11.547Z,99.51
2023-03-15T08:45:56.578Z,99.23
2023-03-15T08:48:27.269Z,98.96
2023-03-15T08:50:55.723Z,99.79
2023-03-15T08:53:24.167Z,98.19
2023-03-15T08:55:52.647Z,98.68
2023-03-15T08:58:21.243Z,94.26
2023-03-15T09:00:50.273Z,94.50
2023-03-15T09:03:19.256Z,94.74
2023-03-15T09:05:49.624Z,94.47
2023-03-15T09:08:21.158Z,93.66
2023-03-15T09:10:49.630Z,95.26
2023-03-15T09:13:18.049Z,93.04
2023-03-15T09:15:46.465Z,93.02
2023-03-15T09:18:14.901Z,92.28
2023-03-15T09:20:43.290Z,90.67
2023-03-15T09:23:13.155Z,90.61
2023-03-15T09:25:42.365Z,90.89
2023-03-15T09:28:12.201Z,92.21
2023-03-15T09:30:42.168Z,90.59
2023-03-15T09:33:14.633Z,91.55
2023-03-15T09:35:43.324Z,89.98
2023-03-15T09:38:13.214Z,90.03
2023-03-15T09:40:45.102Z,90.14
2023-03-15T09:43:49.930Z,89.50
2023-03-15T09:46:28.173Z,88.80
2023-03-15T09:49:02.500Z,89.16
2023-03-15T09:51:39.335Z,89.54
2023-03-15T09:54:13.996Z,89.70
2023-03-15T09:56:48.393Z,88.09
2023-03-15T09:59:22.690Z,88.03
2023-03-15T10:01:55.221Z,88.54
2023-03-15T10:04:28.769Z,87.53
2023-03-15T10:06:59.243Z,87.00
2023-03-15T10:09:33.160Z,87.41
2023-03-15T10:12:06.190Z,86.43
2023-03-15T10:14:51.996Z,86.78
2023-03-15T10:17:25.718Z,86.57
2023-03-15T10:20:01.354Z,86.96
2023-03-15T10:22:37.960Z,87.57
2023-03-15T10:25:16.026Z,88.26
2023-03-15T10:27:49.712Z,86.96
2023-03-15T10:30:21.488Z,86.78
2023-03-15T10:32:55.135Z,86.62
2023-03-15T10:35:23.621Z,87.70
2023-03-15T10:37:52.072Z,81.82
2023-03-15T10:40:43.168Z,81.18
2023-03-15T10:43:19.582Z,78.43
2023-03-15T10:45:58.952Z,77.86
2023-03-15T10:48:27.644Z,77.79
2023-03-15T10:50:57.573Z,78.12
2023-03-15T10:53:27.529Z,79.01
2023-03-15T10:56:07.314Z,79.06
2023-03-15T10:58:43.462Z,79.64
2023-03-15T11:01:23.434Z,79.73
2023-03-15T11:04:03.733Z,80.90
2023-03-15T11:06:41.517Z,83.62
2023-03-15T11:09:12.916Z,80.78
2023-03-15T11:11:53.765Z,79.30
2023-03-15T11:14:22.278Z,79.10
2023-03-15T11:16:52.905Z,80.53
2023-03-15T11:19:24.465Z,79.03
2023-03-15T11:21:53.095Z,77.08
2023-03-15T11:24:28.004Z,75.88
2023-03-15T11:27:01.808Z,73.69
2023-03-15T11:29:32.678Z,71.10
2023-03-15T11:32:03.687Z,70.76
2023-03-15T11:34:43.215Z,69.87
2023-03-15T11:37:20.267Z,69.35
2023-03-15T11:40:04.996Z,67.49
2023-03-15T11:42:45.082Z,69.06
2023-03-15T11:45:19.145Z,67.24
2023-03-15T11:47:54.244Z,66.05
2023-03-15T11:50:22.845Z,65.96
2023-03-15T11:52:53.116Z,66.36
2023-03-15T11:55:25.384Z,64.85
2023-03-15T11:57:57.919Z,65.86
2023-03-15T12:00:52.708Z,65.78
2023-03-15T12:03:35.359Z,68.89
2023-03-15T12:06:12.901Z,67.19
2023-03-15T12:08:48.467Z,64.82
2023-03-15T12:11:38.873Z,67.08
2023-03-15T12:14:22.732Z,67.45
2023-03-15T12:16:52.568Z,65.83
2023-03-15T12:19:25.599Z,64.78
2023-03-15T12:21:57.177Z,63.29
2023-03-15T12:24:28.489Z,63.17
2023-03-15T12:27:04.055Z,64.10
2023-03-15T12:29:35.414Z,62.92
2023-03-15T12:32:13.969Z,60.84
2023-03-15T12:34:48.930Z,60.59
2023-03-15T12:37:21.787Z,58.24
2023-03-15T12:39:52.811Z,58.49
2023-03-15T12:43:10.529Z,59.82
2023-03-15T12:45:45.531Z,60.58
2023-03-15T12:48:26.302Z,63.72
2023-03-15T12:51:00.257Z,65.25
2023-03-15T12:53:49.005Z,61.57
2023-03-15T12:56:42.007Z,58.62
2023-03-15T12:59:23.486Z,59.16
2023-03-15T13:01:52.567Z,58.38
2023-03-15T13:04:23.292Z,56.22
2023-03-15T13:07:24.838Z,56.53
2023-03-15T13:10:14.280Z,53.34
2023-03-15T13:12:49.136Z,55.45
2023-03-15T13:15:22.642Z,56.33
2023-03-15T13:17:52.917Z,56.39
2023-03-15T13:20:39.440Z,55.08
2023-03-15T13:23:16.242Z,53.64
2023-03-15T13:25:55.748Z,51.54
2023-03-15T13:28:26.320Z,50.93
2023-03-15T13:30:56.291Z,51.25
2023-03-15T13:33:27.910Z,47.66
2023-03-15T13:36:01.342Z,44.49
2023-03-15T13:38:32.479Z,45.77
2023-03-15T13:41:03.681Z,45.73
2023-03-15T13:43:34.752Z,47.23
2023-03-15T13:46:03.726Z,47.51
2023-03-15T13:48:34.830Z,48.24
2023-03-15T13:51:08.513Z,49.38
2023-03-15T13:53:49.473Z,50.58
2023-03-15T13:56:20.978Z,60.83
2023-03-15T13:58:52.019Z,71.20
2023-03-15T14:01:23.138Z,77.96
2023-03-15T14:03:57.727Z,83.38
2023-03-15T14:06:28.958Z,84.25
2023-03-15T14:09:03.837Z,85.29
2023-03-15T14:11:38.282Z,83.44
2023-03-15T14:14:24.439Z,86.33
2023-03-15T14:17:04.907Z,82.32
2023-03-15T14:19:35.429Z,77.97
2023-03-15T14:22:15.506Z,73.92
2023-03-15T14:24:45.747Z,72.38
2023-03-15T14:27:19.179Z,71.33
2023-03-15T14:29:50.564Z,71.28
2023-03-15T14:32:28.939Z,63.64
2023-03-15T14:35:03.484Z,57.55
2023-03-15T14:37:38.925Z,55.76
2023-03-15T14:40:15.320Z,52.12
2023-03-15T14:42:44.216Z,51.76
2023-03-15T14:45:13.525Z,51.44
2023-03-15T14:47:55.930Z,49.27
2023-03-15T14:50:26.965Z,49.19
2023-03-15T14:52:59.617Z,49.55
2023-03-15T14:55:33.476Z,49.53
2023-03-15T14:58:02.675Z,48.09
2023-03-15T15:00:31.180Z,48.44
2023-03-15T15:03:00.169Z,46.33
2023-03-15T15:05:36.430Z,44.05
2023-03-15T15:08:10.610Z,44.50
2023-03-15T15:10:40.060Z,45.28
2023-03-15T15:13:08.750Z,46.86
2023-03-15T15:15:53.815Z,48.21
2023-03-15T15:18:24.131Z,47.40
2023-03-15T15:20:55.510Z,47.39
2023-03-15T15:23:28.108Z,46.71
2023-03-15T15:25:59.104Z,46.56
2023-03-15T15:28:36.096Z,47.62
2023-03-15T15:31:06.881Z,48.14
2023-03-15T15:33:35.743Z,49.10
2023-03-15T15:36:04.442Z,49.47
2023-03-15T15:38:39.061Z,49.36
2023-03-15T15:41:13.973Z,50.59
2023-03-15T15:43:43.147Z,50.00
2023-03-15T15:46:13.222Z,51.11
2023-03-15T15:48:42.022Z,51.74
2023-03-15T15:51:19.505Z,50.76
2023-03-15T15:53:49.449Z,51.58
2023-03-15T15:56:18.416Z,52.15
2023-03-15T15:58:47.630Z,52.28
2023-03-15T16:01:17.633Z,52.86
2023-03-15T16:03:46.415Z,53.37
2023-03-15T16:06:18.996Z,53.29
2023-03-15T16:08:50.772Z,53.02
2023-03-15T16:11:19.777Z,53.80
2023-03-15T16:13:52.474Z,53.43
2023-03-15T16:16:21.370Z,58.49
2023-03-15T16:18:49.960Z,75.35
2023-03-15T16:21:24.477Z,90.67
2023-03-15T16:23:59.423Z,97.37
2023-03-15T16:26:28.432Z,100.00
2023-03-15T16:28:56.876Z,100.00
2023-03-15T16:31:25.368Z,100.00
2023-03-15T16:33:53.789Z,100.00
2023-03-15T16:36:24.471Z,100.00
2023-03-15T16:38:56.150Z,100.00
2023-03-15T16:41:24.591Z,100.00
2023-03-15T16:43:52.974Z,100.00
2023-03-15T16:46:21.443Z,100.00
2023-03-15T16:48:50.151Z,100.00
2023-03-15T16:51:18.956Z,100.00
2023-03-15T16:53:47.419Z,100.00
2023-03-15T16:56:17.254Z,100.00
2023-03-15T16:58:46.507Z,100.00
2023-03-15T17:01:15.160Z,100.00
2023-03-15T17:03:43.573Z,99.36
2023-03-15T17:06:20.159Z,99.88
2023-03-15T17:08:48.872Z,98.10
2023-03-15T17:11:19.503Z,97.75
2023-03-15T17:13:48.097Z,98.00
2023-03-15T17:16:17.035Z,97.95
2023-03-15T17:18:47.697Z,97.92
2023-03-15T17:21:19.317Z,97.00
2023-03-15T17:23:48.702Z,97.89
2023-03-15T17:26:20.151Z,97.95
2023-03-15T17:28:49.314Z,96.75
2023-03-15T17:31:24.991Z,97.87
2023-03-15T17:33:54.302Z,98.77
2023-03-15T17:36:25.309Z,97.56
2023-03-15T17:38:54.898Z,97.46
2023-03-15T17:41:28.698Z,97.95
2023-03-15T17:43:57.876Z,98.09
2023-03-15T17:46:30.262Z,97.39
2023-03-15T17:48:59.618Z,97.59
2023-03-15T17:51:30.234Z,97.71
2023-03-15T17:54:00.301Z,98.60
2023-03-15T17:56:31.598Z,98.57
2023-03-15T17:59:00.073Z,97.64
2023-03-15T18:01:29.578Z,96.94
2023-03-15T18:03:59.521Z,96.43
2023-03-15T18:06:27.923Z,96.47
2023-03-15T18:08:56.316Z,97.52
2023-03-15T18:11:27.764Z,97.52
2023-03-15T18:13:57.547Z,96.74
2023-03-15T18:16:26.561Z,96.67
2023-03-15T18:18:55.014Z,95.93
2023-03-15T18:21:26.498Z,96.05
2023-03-15T18:23:55.264Z,93.73
2023-03-15T18:26:23.849Z,92.85
2023-03-15T18:28:52.364Z,93.14
2023-03-15T18:31:24.774Z,92.62
2023-03-15T18:33:54.500Z,92.83
2023-03-15T18:36:23.353Z,92.03
2023-03-15T18:38:52.594Z,93.15
2023-03-15T18:41:22.829Z,92.59
2023-03-15T18:43:52.105Z,93.12
2023-03-15T18:46:24.344Z,93.14
2023-03-15T18:48:54.419Z,92.49
2023-03-15T18:51:26.425Z,93.20
2023-03-15T18:53:56.000Z,93.01
2023-03-15T18:56:25.907Z,92.53
2023-03-15T18:58:55.562Z,93.37
2023-03-15T19:01:25.457Z,93.40
2023-03-15T19:03:54.967Z,93.82
2023-03-15T19:06:23.998Z,92.88
2023-03-15T19:08:54.162Z,93.39
2023-03-15T19:11:24.412Z,93.86
2023-03-15T19:13:52.835Z,93.76
2023-03-15T19:16:22.272Z,93.96
2023-03-15T19:18:53.071Z,94.52
2023-03-15T19:21:21.739Z,95.23
2023-03-15T19:23:50.398Z,95.46
2023-03-15T19:26:19.029Z,95.59
2023-03-15T19:28:47.452Z,94.87
2023-03-15T19:31:15.936Z,94.99
2023-03-15T19:33:44.433Z,96.40
2023-03-15T19:36:14.321Z,95.81
2023-03-15T19:38:42.885Z,96.23
2023-03-15T19:41:12.982Z,96.58
2023-03-15T19:43:43.391Z,96.67
2023-03-15T19:46:13.998Z,96.62
2023-03-15T19:48:42.671Z,96.99
2023-03-15T19:51:11.088Z,97.18
2023-03-15T19:53:40.907Z,97.57
2023-03-15T19:56:11.395Z,97.89
2023-03-15T19:58:39.814Z,98.04
2023-03-15T20:01:08.219Z,98.63
2023-03-15T20:03:37.026Z,98.63
2023-03-15T20:06:07.789Z,98.76
2023-03-15T20:08:36.298Z,98.80
2023-03-15T20:11:07.718Z,99.58
2023-03-15T20:13:36.556Z,99.29
2023-03-15T20:16:05.850Z,99.26
2023-03-15T20:18:34.440Z,99.46
2023-03-15T20:21:02.814Z,99.23
2023-03-15T20:23:31.430Z,99.62
2023-03-15T20:26:10.734Z,98.97
2023-03-15T20:28:41.388Z,98.83
2023-03-15T20:31:10.756Z,99.07
2023-03-15T20:33:39.425Z,99.46
2023-03-15T20:36:08.660Z,99.68
2023-03-15T20:38:38.471Z,99.55
2023-03-15T20:41:08.610Z,99.57
2023-03-15T20:43:37.390Z,99.15
2023-03-15T20:46:06.117Z,100.00
2023-03-15T20:48:36.102Z,100.00
2023-03-15T20:51:05.636Z,100.00
2023-03-15T20:53:35.648Z,100.00
2023-03-15T20:56:04.936Z,100.00
2023-03-15T20:58:34.701Z,100.00
2023-03-15T21:01:04.581Z,100.00
2023-03-15T21:03:34.415Z,100.00
2023-03-15T21:06:04.514Z,100.00
2023-03-15T21:08:34.649Z,100.00
2023-03-15T21:11:03.631Z,100.00
2023-03-15T21:13:32.243Z,100.00
2023-03-15T21:16:04.360Z,100.00
2023-03-15T21:18:35.969Z,100.00
2023-03-15T21:21:07.393Z,100.00
2023-03-15T21:23:36.882Z,100.00
2023-03-15T21:26:07.486Z,100.00
2023-03-15T21:28:36.060Z,100.00
2023-03-15T21:31:06.647Z,100.00
2023-03-15T21:33:35.514Z,100.00
2023-03-15T21:36:04.441Z,100.00
2023-03-15T21:38:35.270Z,100.00
2023-03-15T21:41:07.752Z,100.00
2023-03-15T21:43:36.657Z,100.00
2023-03-15T21:46:08.264Z,100.00
2023-03-15T21:48:37.959Z,100.00
2023-03-15T21:51:07.665Z,100.00
2023-03-15T21:53:36.546Z,100.00
2023-03-15T21:56:05.618Z,100.00
2023-03-15T21:58:34.316Z,100.00
2023-03-15T22:01:04.854Z,100.00
2023-03-15T22:03:37.390Z,100.00
2023-03-15T22:06:06.162Z,100.00
2023-03-15T22:08:34.633Z,100.00
2023-03-15T22:11:04.699Z,100.00
2023-03-15T22:13:33.168Z,100.00
2023-03-15T22:16:01.585Z,100.00
2023-03-15T22:18:30.092Z,100.00
2023-03-15T22:20:59.864Z,100.00
2023-03-15T22:23:29.281Z,100.00
2023-03-15T22:25:57.732Z,100.00
2023-03-15T22:28:27.320Z,100.00
2023-03-15T22:30:55.754Z,100.00
2023-03-15T22:33:24.436Z,100.00
2023-03-15T22:35:56.859Z,100.00
2023-03-15T22:38:27.344Z,100.00
2023-03-15T22:41:05.295Z,100.00
2023-03-15T22:43:33.751Z,100.00
2023-03-15T22:46:02.510Z,100.00
2023-03-15T22:48:31.289Z,100.00
2023-03-15T22:51:01.089Z,100.00
2023-03-15T22:53:31.301Z,100.00
2023-03-15T22:56:00.328Z,100.00
2023-03-15T22:58:28.887Z,100.00
2023-03-15T23:00:57.346Z,100.00
2023-03-15T23:03:26.347Z,100.00
2023-03-15T23:05:55.421Z,100.00
2023-03-15T23:08:24.296Z,100.00
2023-03-15T23:10:54.073Z,100.00
2023-03-15T23:13:22.597Z,100.00
2023-03-15T23:15:54.363Z,100.00
2023-03-15T23:18:23.309Z,100.00
2023-03-15T23:20:51.828Z,100.00
2023-03-15T23:23:20.221Z,100.00
2023-03-15T23:25:49.291Z,100.00
2023-03-15T23:28:21.706Z,100.00
2023-03-15T23:30:50.282Z,100.00
2023-03-15T23:33:18.945Z,100.00
2023-03-15T23:35:47.469Z,100.00
2023-03-15T23:38:17.277Z,100.00
2023-03-15T23:40:46.265Z,100.00
2023-03-15T23:43:14.837Z,100.00
2023-03-15T23:45:44.590Z,100.00
2023-03-15T23:48:13.519Z,100.00
2023-03-15T23:50:44.412Z,100.00
2023-03-15T23:53:12.880Z,100.00
2023-03-15T23:55:41.322Z,100.00
2023-03-15T23:58:09.726Z,100.00
